Terminal Aerodrome Forecast
Issued by NWS

Home | Current Version | Previous Version | Text Only | Print | Product List | Glossary On
Versions: 1 2 3 4 5 6 7 8 9 10 11 12 13
000
FTAK31 PAJN 290520
TAFAPG
TAF
PAPG 290520Z 2906/3006 23004KT P6SM SCT080 BKN200
     FM291100 VRB04KT P6SM SCT005 BKN090
     FM291500 07004KT P6SM BKN020 OVC180
     FM292100 08006KT P6SM BKN040 BKN150
     FM300500 VRB04KT P6SM BKN025 BKN160
      AMD LTD TO CLD VIS AND WIND 2906/2915=

USA.gov is the U.S. government's official web portal to all federal, state and local government web resources and services.